sensor_id;sensor_type;location;lat;lon;timestamp;temperature;humidity
14733;DHT22;7457;50.960;6.830;2022-09-03T00:02:08;18.60;52.40
14733;DHT22;7457;50.960;6.830;2022-09-03T00:07:38;18.50;52.50
14733;DHT22;7457;50.960;6.830;2022-09-03T00:10:10;18.50;52.60
14733;DHT22;7457;50.960;6.830;2022-09-03T00:12:42;18.50;52.60
14733;DHT22;7457;50.960;6.830;2022-09-03T00:15:19;18.50;52.60
14733;DHT22;7457;50.960;6.830;2022-09-03T00:17:55;18.40;52.50
14733;DHT22;7457;50.960;6.830;2022-09-03T00:23:15;18.40;52.70
14733;DHT22;7457;50.960;6.830;2022-09-03T00:25:50;18.30;52.70
14733;DHT22;7457;50.960;6.830;2022-09-03T00:28:20;18.30;52.90
14733;DHT22;7457;50.960;6.830;2022-09-03T00:30:51;18.30;53.00
14733;DHT22;7457;50.960;6.830;2022-09-03T00:33:25;18.20;53.00
14733;DHT22;7457;50.960;6.830;2022-09-03T00:36:09;18.20;53.30
14733;DHT22;7457;50.960;6.830;2022-09-03T00:38:36;18.10;53.50
14733;DHT22;7457;50.960;6.830;2022-09-03T00:51:58;17.90;53.90
14733;DHT22;7457;50.960;6.830;2022-09-03T00:57:15;17.90;53.90
14733;DHT22;7457;50.960;6.830;2022-09-03T00:59:58;17.90;54.00
14733;DHT22;7457;50.960;6.830;2022-09-03T01:08:42;17.80;54.30
14733;DHT22;7457;50.960;6.830;2022-09-03T01:10:45;17.80;54.50
14733;DHT22;7457;50.960;6.830;2022-09-03T01:13:32;17.70;54.40
14733;DHT22;7457;50.960;6.830;2022-09-03T01:30:02;17.70;54.80
14733;DHT22;7457;50.960;6.830;2022-09-03T01:33:02;17.70;54.80
14733;DHT22;7457;50.960;6.830;2022-09-03T01:41:30;17.60;55.50
14733;DHT22;7457;50.960;6.830;2022-09-03T01:53:22;17.50;55.70
14733;DHT22;7457;50.960;6.830;2022-09-03T01:58:20;17.40;55.80
14733;DHT22;7457;50.960;6.830;2022-09-03T02:00:56;17.40;55.90
14733;DHT22;7457;50.960;6.830;2022-09-03T02:03:25;17.40;56.00
14733;DHT22;7457;50.960;6.830;2022-09-03T02:05:57;17.40;56.30
14733;DHT22;7457;50.960;6.830;2022-09-03T02:08:24;17.30;56.20
14733;DHT22;7457;50.960;6.830;2022-09-03T02:10:52;17.30;56.40
14733;DHT22;7457;50.960;6.830;2022-09-03T02:13:25;17.30;56.40
14733;DHT22;7457;50.960;6.830;2022-09-03T02:15:55;17.20;56.40
14733;DHT22;7457;50.960;6.830;2022-09-03T02:18:28;17.20;56.60
14733;DHT22;7457;50.960;6.830;2022-09-03T02:20:55;17.20;56.70
14733;DHT22;7457;50.960;6.830;2022-09-03T02:23:22;17.10;56.80
14733;DHT22;7457;50.960;6.830;2022-09-03T02:25:51;17.10;56.90
14733;DHT22;7457;50.960;6.830;2022-09-03T02:28:19;17.10;57.00
14733;DHT22;7457;50.960;6.830;2022-09-03T02:30:45;17.00;56.90
14733;DHT22;7457;50.960;6.830;2022-09-03T02:33:11;17.00;57.10
14733;DHT22;7457;50.960;6.830;2022-09-03T02:35:38;16.90;57.20
14733;DHT22;7457;50.960;6.830;2022-09-03T02:38:12;16.80;57.40
14733;DHT22;7457;50.960;6.830;2022-09-03T02:40:38;16.80;57.50
14733;DHT22;7457;50.960;6.830;2022-09-03T02:43:05;16.80;57.50
14733;DHT22;7457;50.960;6.830;2022-09-03T02:45:34;16.80;57.70
14733;DHT22;7457;50.960;6.830;2022-09-03T02:48:03;16.80;57.90
14733;DHT22;7457;50.960;6.830;2022-09-03T02:50:28;16.80;58.00
14733;DHT22;7457;50.960;6.830;2022-09-03T02:52:54;16.70;58.00
14733;DHT22;7457;50.960;6.830;2022-09-03T02:55:20;16.70;58.50
14733;DHT22;7457;50.960;6.830;2022-09-03T02:57:46;16.70;58.30
14733;DHT22;7457;50.960;6.830;2022-09-03T03:00:12;16.70;58.20
14733;DHT22;7457;50.960;6.830;2022-09-03T03:02:38;16.70;58.40
14733;DHT22;7457;50.960;6.830;2022-09-03T03:05:04;16.70;58.30
14733;DHT22;7457;50.960;6.830;2022-09-03T03:07:36;16.70;58.30
14733;DHT22;7457;50.960;6.830;2022-09-03T03:10:03;16.70;58.40
14733;DHT22;7457;50.960;6.830;2022-09-03T03:12:29;16.70;58.50
14733;DHT22;7457;50.960;6.830;2022-09-03T03:14:55;16.70;58.50
14733;DHT22;7457;50.960;6.830;2022-09-03T03:17:20;16.70;58.70
14733;DHT22;7457;50.960;6.830;2022-09-03T03:19:46;16.70;58.70
14733;DHT22;7457;50.960;6.830;2022-09-03T03:22:11;16.80;58.70
14733;DHT22;7457;50.960;6.830;2022-09-03T03:24:37;16.80;58.80
14733;DHT22;7457;50.960;6.830;2022-09-03T03:27:05;16.80;58.70
14733;DHT22;7457;50.960;6.830;2022-09-03T03:29:32;16.80;58.70
14733;DHT22;7457;50.960;6.830;2022-09-03T03:32:01;16.80;58.90
14733;DHT22;7457;50.960;6.830;2022-09-03T03:34:26;16.80;58.90
14733;DHT22;7457;50.960;6.830;2022-09-03T03:36:52;16.90;59.00
14733;DHT22;7457;50.960;6.830;2022-09-03T03:39:18;16.90;59.00
14733;DHT22;7457;50.960;6.830;2022-09-03T03:41:44;16.90;59.00
14733;DHT22;7457;50.960;6.830;2022-09-03T03:44:10;16.80;58.80
14733;DHT22;7457;50.960;6.830;2022-09-03T03:46:38;16.90;59.10
14733;DHT22;7457;50.960;6.830;2022-09-03T03:49:04;16.90;59.10
14733;DHT22;7457;50.960;6.830;2022-09-03T03:51:31;16.90;59.00
14733;DHT22;7457;50.960;6.830;2022-09-03T03:53:57;16.90;59.30
14733;DHT22;7457;50.960;6.830;2022-09-03T03:56:24;16.90;59.00
14733;DHT22;7457;50.960;6.830;2022-09-03T03:58:50;17.00;59.00
14733;DHT22;7457;50.960;6.830;2022-09-03T04:01:19;17.00;59.10
14733;DHT22;7457;50.960;6.830;2022-09-03T04:03:45;17.00;59.10
14733;DHT22;7457;50.960;6.830;2022-09-03T04:06:13;17.00;59.10
14733;DHT22;7457;50.960;6.830;2022-09-03T04:08:40;17.00;59.00
14733;DHT22;7457;50.960;6.830;2022-09-03T04:11:08;17.00;59.00
14733;DHT22;7457;50.960;6.830;2022-09-03T04:13:36;17.00;59.10
14733;DHT22;7457;50.960;6.830;2022-09-03T04:16:23;17.00;59.10
14733;DHT22;7457;50.960;6.830;2022-09-03T04:18:50;17.00;59.20
14733;DHT22;7457;50.960;6.830;2022-09-03T04:21:21;17.00;59.00
14733;DHT22;7457;50.960;6.830;2022-09-03T04:23:48;17.00;59.10
14733;DHT22;7457;50.960;6.830;2022-09-03T04:26:16;17.10;59.10
14733;DHT22;7457;50.960;6.830;2022-09-03T04:28:42;17.10;59.40
14733;DHT22;7457;50.960;6.830;2022-09-03T04:31:11;17.10;59.30
14733;DHT22;7457;50.960;6.830;2022-09-03T04:33:37;17.10;59.40
14733;DHT22;7457;50.960;6.830;2022-09-03T04:38:32;17.10;59.50
14733;DHT22;7457;50.960;6.830;2022-09-03T04:40:58;17.10;59.50
14733;DHT22;7457;50.960;6.830;2022-09-03T04:43:25;17.10;59.50
14733;DHT22;7457;50.960;6.830;2022-09-03T04:45:54;17.10;59.50
14733;DHT22;7457;50.960;6.830;2022-09-03T04:48:19;17.10;59.50
14733;DHT22;7457;50.960;6.830;2022-09-03T04:50:45;17.10;59.50
14733;DHT22;7457;50.960;6.830;2022-09-03T04:53:14;17.20;59.60
14733;DHT22;7457;50.960;6.830;2022-09-03T04:55:39;17.20;59.60
14733;DHT22;7457;50.960;6.830;2022-09-03T04:58:05;17.20;59.60
14733;DHT22;7457;50.960;6.830;2022-09-03T05:00:35;17.20;59.50
14733;DHT22;7457;50.960;6.830;2022-09-03T05:03:02;17.20;59.30
14733;DHT22;7457;50.960;6.830;2022-09-03T05:05:29;17.30;59.40
14733;DHT22;7457;50.960;6.830;2022-09-03T05:07:59;17.30;59.40
14733;DHT22;7457;50.960;6.830;2022-09-03T05:10:28;17.30;59.70
14733;DHT22;7457;50.960;6.830;2022-09-03T05:13:02;17.20;59.50
14733;DHT22;7457;50.960;6.830;2022-09-03T05:15:29;17.30;59.60
14733;DHT22;7457;50.960;6.830;2022-09-03T05:17:59;17.30;59.70
14733;DHT22;7457;50.960;6.830;2022-09-03T05:20:29;17.30;59.70
14733;DHT22;7457;50.960;6.830;2022-09-03T05:23:01;17.30;59.60
14733;DHT22;7457;50.960;6.830;2022-09-03T05:25:28;17.40;59.80
14733;DHT22;7457;50.960;6.830;2022-09-03T05:27:56;17.40;59.50
14733;DHT22;7457;50.960;6.830;2022-09-03T05:30:22;17.40;59.50
14733;DHT22;7457;50.960;6.830;2022-09-03T05:32:51;17.50;59.50
14733;DHT22;7457;50.960;6.830;2022-09-03T05:35:17;17.50;59.30
14733;DHT22;7457;50.960;6.830;2022-09-03T05:37:43;17.60;59.40
14733;DHT22;7457;50.960;6.830;2022-09-03T05:40:09;17.60;59.30
14733;DHT22;7457;50.960;6.830;2022-09-03T05:42:38;17.70;59.10
14733;DHT22;7457;50.960;6.830;2022-09-03T05:45:06;17.80;59.00
14733;DHT22;7457;50.960;6.830;2022-09-03T05:47:36;17.80;59.00
14733;DHT22;7457;50.960;6.830;2022-09-03T05:50:04;17.80;59.00
14733;DHT22;7457;50.960;6.830;2022-09-03T05:52:30;17.90;59.00
14733;DHT22;7457;50.960;6.830;2022-09-03T05:54:56;17.90;59.00
14733;DHT22;7457;50.960;6.830;2022-09-03T05:57:21;18.30;58.80
14733;DHT22;7457;50.960;6.830;2022-09-03T05:59:47;18.70;58.30
14733;DHT22;7457;50.960;6.830;2022-09-03T06:02:15;18.90;58.10
14733;DHT22;7457;50.960;6.830;2022-09-03T06:04:43;18.90;57.70
14733;DHT22;7457;50.960;6.830;2022-09-03T06:07:09;18.80;57.70
14733;DHT22;7457;50.960;6.830;2022-09-03T06:09:34;18.70;57.80
14733;DHT22;7457;50.960;6.830;2022-09-03T06:12:00;18.50;57.80
14733;DHT22;7457;50.960;6.830;2022-09-03T06:14:25;18.40;58.00
14733;DHT22;7457;50.960;6.830;2022-09-03T06:16:51;18.30;58.20
14733;DHT22;7457;50.960;6.830;2022-09-03T06:19:17;18.20;58.40
14733;DHT22;7457;50.960;6.830;2022-09-03T06:21:44;18.20;58.50
14733;DHT22;7457;50.960;6.830;2022-09-03T06:24:15;18.10;58.50
14733;DHT22;7457;50.960;6.830;2022-09-03T06:26:42;18.10;58.70
14733;DHT22;7457;50.960;6.830;2022-09-03T06:29:08;18.10;59.30
14733;DHT22;7457;50.960;6.830;2022-09-03T06:31:33;18.10;58.80
14733;DHT22;7457;50.960;6.830;2022-09-03T06:34:00;18.20;58.90
14733;DHT22;7457;50.960;6.830;2022-09-03T06:36:26;18.30;58.90
14733;DHT22;7457;50.960;6.830;2022-09-03T06:38:53;18.30;58.90
14733;DHT22;7457;50.960;6.830;2022-09-03T06:41:22;18.30;58.90
14733;DHT22;7457;50.960;6.830;2022-09-03T06:43:57;18.30;58.80
14733;DHT22;7457;50.960;6.830;2022-09-03T06:46:34;18.40;58.90
14733;DHT22;7457;50.960;6.830;2022-09-03T06:49:00;18.50;59.00
14733;DHT22;7457;50.960;6.830;2022-09-03T06:51:27;18.50;58.90
14733;DHT22;7457;50.960;6.830;2022-09-03T06:53:58;18.60;58.80
14733;DHT22;7457;50.960;6.830;2022-09-03T06:56:24;18.70;58.70
14733;DHT22;7457;50.960;6.830;2022-09-03T06:58:57;18.70;58.60
14733;DHT22;7457;50.960;6.830;2022-09-03T07:01:25;18.70;58.50
14733;DHT22;7457;50.960;6.830;2022-09-03T07:03:54;18.80;58.50
14733;DHT22;7457;50.960;6.830;2022-09-03T07:06:21;18.80;58.40
14733;DHT22;7457;50.960;6.830;2022-09-03T07:08:47;18.80;58.40
14733;DHT22;7457;50.960;6.830;2022-09-03T07:11:16;18.90;58.60
14733;DHT22;7457;50.960;6.830;2022-09-03T07:13:46;18.90;58.50
14733;DHT22;7457;50.960;6.830;2022-09-03T07:16:16;19.00;58.50
14733;DHT22;7457;50.960;6.830;2022-09-03T07:18:42;19.00;58.40
14733;DHT22;7457;50.960;6.830;2022-09-03T07:21:17;19.00;58.30
14733;DHT22;7457;50.960;6.830;2022-09-03T07:23:43;19.10;58.40
14733;DHT22;7457;50.960;6.830;2022-09-03T07:26:21;19.20;58.30
14733;DHT22;7457;50.960;6.830;2022-09-03T07:28:48;19.20;58.10
14733;DHT22;7457;50.960;6.830;2022-09-03T07:31:25;19.30;57.90
14733;DHT22;7457;50.960;6.830;2022-09-03T07:33:59;19.40;58.00
14733;DHT22;7457;50.960;6.830;2022-09-03T07:36:27;19.60;57.90
14733;DHT22;7457;50.960;6.830;2022-09-03T07:38:57;19.70;57.80
14733;DHT22;7457;50.960;6.830;2022-09-03T07:41:24;19.90;57.50
14733;DHT22;7457;50.960;6.830;2022-09-03T07:43:51;20.00;57.40
14733;DHT22;7457;50.960;6.830;2022-09-03T07:46:22;19.90;57.00
14733;DHT22;7457;50.960;6.830;2022-09-03T07:48:52;19.90;57.00
14733;DHT22;7457;50.960;6.830;2022-09-03T07:51:20;19.90;57.00
14733;DHT22;7457;50.960;6.830;2022-09-03T07:53:47;19.90;57.10
14733;DHT22;7457;50.960;6.830;2022-09-03T07:56:14;19.90;57.20
14733;DHT22;7457;50.960;6.830;2022-09-03T07:58:40;20.00;57.30
14733;DHT22;7457;50.960;6.830;2022-09-03T08:01:11;20.10;57.40
14733;DHT22;7457;50.960;6.830;2022-09-03T08:03:38;20.20;57.10
14733;DHT22;7457;50.960;6.830;2022-09-03T08:06:07;20.40;57.00
14733;DHT22;7457;50.960;6.830;2022-09-03T08:08:36;20.60;56.90
14733;DHT22;7457;50.960;6.830;2022-09-03T08:13:34;21.10;56.20
14733;DHT22;7457;50.960;6.830;2022-09-03T08:16:00;21.30;55.50
14733;DHT22;7457;50.960;6.830;2022-09-03T08:18:26;21.40;55.10
14733;DHT22;7457;50.960;6.830;2022-09-03T08:20:59;21.30;54.90
14733;DHT22;7457;50.960;6.830;2022-09-03T08:23:25;21.30;55.10
14733;DHT22;7457;50.960;6.830;2022-09-03T08:25:58;21.30;55.20
14733;DHT22;7457;50.960;6.830;2022-09-03T08:28:24;21.20;55.20
14733;DHT22;7457;50.960;6.830;2022-09-03T08:30:50;21.10;55.60
14733;DHT22;7457;50.960;6.830;2022-09-03T08:33:16;21.10;56.10
14733;DHT22;7457;50.960;6.830;2022-09-03T08:35:41;21.00;56.50
14733;DHT22;7457;50.960;6.830;2022-09-03T08:38:07;21.00;56.80
14733;DHT22;7457;50.960;6.830;2022-09-03T08:40:36;21.00;57.00
14733;DHT22;7457;50.960;6.830;2022-09-03T08:43:15;20.90;57.10
14733;DHT22;7457;50.960;6.830;2022-09-03T08:45:43;20.80;57.40
14733;DHT22;7457;50.960;6.830;2022-09-03T08:48:13;20.70;57.80
14733;DHT22;7457;50.960;6.830;2022-09-03T08:50:43;20.70;58.00
14733;DHT22;7457;50.960;6.830;2022-09-03T08:55:51;20.50;58.80
14733;DHT22;7457;50.960;6.830;2022-09-03T08:58:25;20.40;58.90
14733;DHT22;7457;50.960;6.830;2022-09-03T09:17:26;19.90;61.40
14733;DHT22;7457;50.960;6.830;2022-09-03T09:23:06;19.90;61.80
14733;DHT22;7457;50.960;6.830;2022-09-03T09:25:42;20.00;62.40
14733;DHT22;7457;50.960;6.830;2022-09-03T09:30:38;20.40;61.80
14733;DHT22;7457;50.960;6.830;2022-09-03T09:33:04;20.40;61.40
14733;DHT22;7457;50.960;6.830;2022-09-03T09:35:31;20.50;61.30
14733;DHT22;7457;50.960;6.830;2022-09-03T09:37:58;20.60;61.00
14733;DHT22;7457;50.960;6.830;2022-09-03T09:40:34;20.70;61.00
14733;DHT22;7457;50.960;6.830;2022-09-03T09:43:29;21.00;60.90
14733;DHT22;7457;50.960;6.830;2022-09-03T09:46:07;21.10;60.20
14733;DHT22;7457;50.960;6.830;2022-09-03T09:48:38;21.10;59.90
14733;DHT22;7457;50.960;6.830;2022-09-03T09:51:12;21.40;59.90
14733;DHT22;7457;50.960;6.830;2022-09-03T09:53:39;21.70;59.70
14733;DHT22;7457;50.960;6.830;2022-09-03T09:56:05;22.20;59.20
14733;DHT22;7457;50.960;6.830;2022-09-03T09:58:33;22.90;58.60
14733;DHT22;7457;50.960;6.830;2022-09-03T10:01:09;23.40;57.50
14733;DHT22;7457;50.960;6.830;2022-09-03T10:03:51;23.90;57.10
14733;DHT22;7457;50.960;6.830;2022-09-03T10:06:25;24.60;56.00
14733;DHT22;7457;50.960;6.830;2022-09-03T10:09:15;25.00;55.50
14733;DHT22;7457;50.960;6.830;2022-09-03T10:11:50;25.60;54.70
14733;DHT22;7457;50.960;6.830;2022-09-03T10:14:25;25.90;53.20
14733;DHT22;7457;50.960;6.830;2022-09-03T10:17:04;26.20;52.70
14733;DHT22;7457;50.960;6.830;2022-09-03T10:22:43;26.10;51.70
14733;DHT22;7457;50.960;6.830;2022-09-03T10:25:14;25.90;52.20
14733;DHT22;7457;50.960;6.830;2022-09-03T10:27:40;25.90;52.70
14733;DHT22;7457;50.960;6.830;2022-09-03T10:30:09;25.70;53.10
14733;DHT22;7457;50.960;6.830;2022-09-03T10:32:44;25.50;52.80
14733;DHT22;7457;50.960;6.830;2022-09-03T10:35:28;25.40;53.30
14733;DHT22;7457;50.960;6.830;2022-09-03T10:38:14;25.30;53.60
14733;DHT22;7457;50.960;6.830;2022-09-03T10:44:04;26.20;53.70
14733;DHT22;7457;50.960;6.830;2022-09-03T10:46:55;26.70;52.90
14733;DHT22;7457;50.960;6.830;2022-09-03T10:52:53;26.60;51.60
14733;DHT22;7457;50.960;6.830;2022-09-03T11:00:18;27.30;51.60
14733;DHT22;7457;50.960;6.830;2022-09-03T11:05:17;27.70;50.60
14733;DHT22;7457;50.960;6.830;2022-09-03T11:08:09;27.90;50.60
14733;DHT22;7457;50.960;6.830;2022-09-03T11:10:43;28.40;50.40
14733;DHT22;7457;50.960;6.830;2022-09-03T11:13:26;28.70;49.80
14733;DHT22;7457;50.960;6.830;2022-09-03T11:15:58;29.00;48.90
14733;DHT22;7457;50.960;6.830;2022-09-03T11:18:46;29.30;48.90
14733;DHT22;7457;50.960;6.830;2022-09-03T11:21:16;29.70;48.70
14733;DHT22;7457;50.960;6.830;2022-09-03T11:23:46;30.10;48.40
14733;DHT22;7457;50.960;6.830;2022-09-03T11:26:17;30.40;48.00
14733;DHT22;7457;50.960;6.830;2022-09-03T11:36:50;30.50;46.20
14733;DHT22;7457;50.960;6.830;2022-09-03T11:39:23;30.40;46.20
14733;DHT22;7457;50.960;6.830;2022-09-03T11:41:59;30.30;46.30
14733;DHT22;7457;50.960;6.830;2022-09-03T11:44:42;30.10;46.50
14733;DHT22;7457;50.960;6.830;2022-09-03T11:47:20;30.10;46.30
14733;DHT22;7457;50.960;6.830;2022-09-03T11:49:48;29.90;46.50
14733;DHT22;7457;50.960;6.830;2022-09-03T11:52:28;29.90;47.10
14733;DHT22;7457;50.960;6.830;2022-09-03T11:54:54;30.00;47.10
14733;DHT22;7457;50.960;6.830;2022-09-03T11:57:28;30.00;46.60
14733;DHT22;7457;50.960;6.830;2022-09-03T12:00:05;29.80;46.10
14733;DHT22;7457;50.960;6.830;2022-09-03T12:02:34;29.70;46.40
14733;DHT22;7457;50.960;6.830;2022-09-03T12:13:28;30.00;46.60
14733;DHT22;7457;50.960;6.830;2022-09-03T12:18:47;29.80;45.60
14733;DHT22;7457;50.960;6.830;2022-09-03T12:21:17;29.50;46.10
14733;DHT22;7457;50.960;6.830;2022-09-03T12:23:49;29.40;46.80
14733;DHT22;7457;50.960;6.830;2022-09-03T12:26:20;29.20;46.90
14733;DHT22;7457;50.960;6.830;2022-09-03T12:28:53;29.10;47.00
14733;DHT22;7457;50.960;6.830;2022-09-03T12:31:21;28.90;47.10
14733;DHT22;7457;50.960;6.830;2022-09-03T12:33:52;28.50;47.50
14733;DHT22;7457;50.960;6.830;2022-09-03T12:36:20;27.90;48.10
14733;DHT22;7457;50.960;6.830;2022-09-03T12:38:47;27.60;49.20
14733;DHT22;7457;50.960;6.830;2022-09-03T12:41:21;27.30;49.80
14733;DHT22;7457;50.960;6.830;2022-09-03T12:43:55;27.20;50.70
14733;DHT22;7457;50.960;6.830;2022-09-03T12:46:26;27.20;51.20
14733;DHT22;7457;50.960;6.830;2022-09-03T12:49:00;27.10;51.50
14733;DHT22;7457;50.960;6.830;2022-09-03T12:51:33;27.00;51.90
14733;DHT22;7457;50.960;6.830;2022-09-03T12:54:02;26.90;52.30
14733;DHT22;7457;50.960;6.830;2022-09-03T12:56:29;26.80;52.50
14733;DHT22;7457;50.960;6.830;2022-09-03T12:59:00;26.70;53.00
14733;DHT22;7457;50.960;6.830;2022-09-03T13:01:29;26.70;53.30
14733;DHT22;7457;50.960;6.830;2022-09-03T13:04:18;26.80;53.30
14733;DHT22;7457;50.960;6.830;2022-09-03T13:06:49;26.80;53.20
14733;DHT22;7457;50.960;6.830;2022-09-03T13:09:22;26.90;53.20
14733;DHT22;7457;50.960;6.830;2022-09-03T13:11:51;26.90;53.20
14733;DHT22;7457;50.960;6.830;2022-09-03T13:14:17;26.90;53.10
14733;DHT22;7457;50.960;6.830;2022-09-03T13:16:46;27.00;53.40
14733;DHT22;7457;50.960;6.830;2022-09-03T13:30:18;26.60;54.40
14733;DHT22;7457;50.960;6.830;2022-09-03T13:33:12;26.50;54.40
14733;DHT22;7457;50.960;6.830;2022-09-03T13:35:44;26.50;54.50
14733;DHT22;7457;50.960;6.830;2022-09-03T13:38:45;26.50;54.50
14733;DHT22;7457;50.960;6.830;2022-09-03T13:44:17;26.50;54.80
14733;DHT22;7457;50.960;6.830;2022-09-03T13:47:04;26.70;54.80
14733;DHT22;7457;50.960;6.830;2022-09-03T13:50:02;26.80;54.60
14733;DHT22;7457;50.960;6.830;2022-09-03T13:55:46;26.70;54.40
14733;DHT22;7457;50.960;6.830;2022-09-03T13:58:32;26.60;54.40
14733;DHT22;7457;50.960;6.830;2022-09-03T14:03:56;26.50;54.80
14733;DHT22;7457;50.960;6.830;2022-09-03T14:06:43;26.50;54.90
14733;DHT22;7457;50.960;6.830;2022-09-03T14:14:44;26.50;54.70
14733;DHT22;7457;50.960;6.830;2022-09-03T14:23:39;26.50;55.00
14733;DHT22;7457;50.960;6.830;2022-09-03T14:25:54;26.50;54.80
14733;DHT22;7457;50.960;6.830;2022-09-03T14:28:36;26.50;54.70
14733;DHT22;7457;50.960;6.830;2022-09-03T14:32:12;26.40;54.70
14733;DHT22;7457;50.960;6.830;2022-09-03T14:37:47;26.40;54.90
14733;DHT22;7457;50.960;6.830;2022-09-03T15:01:35;26.40;55.10
14733;DHT22;7457;50.960;6.830;2022-09-03T15:04:44;26.30;55.10
14733;DHT22;7457;50.960;6.830;2022-09-03T15:07:33;26.10;55.50
14733;DHT22;7457;50.960;6.830;2022-09-03T15:10:17;26.00;55.80
14733;DHT22;7457;50.960;6.830;2022-09-03T15:12:52;25.90;56.20
14733;DHT22;7457;50.960;6.830;2022-09-03T15:15:30;25.80;56.10
14733;DHT22;7457;50.960;6.830;2022-09-03T15:18:14;25.80;56.80
14733;DHT22;7457;50.960;6.830;2022-09-03T15:21:00;25.70;56.80
14733;DHT22;7457;50.960;6.830;2022-09-03T15:29:32;25.70;57.10
14733;DHT22;7457;50.960;6.830;2022-09-03T15:34:58;25.60;57.40
14733;DHT22;7457;50.960;6.830;2022-09-03T15:40:24;25.40;57.50
14733;DHT22;7457;50.960;6.830;2022-09-03T15:43:01;25.40;57.70
14733;DHT22;7457;50.960;6.830;2022-09-03T15:45:35;25.30;57.80
14733;DHT22;7457;50.960;6.830;2022-09-03T16:02:29;25.30;58.40
14733;DHT22;7457;50.960;6.830;2022-09-03T16:17:41;25.00;62.40
14733;DHT22;7457;50.960;6.830;2022-09-03T16:20:43;24.90;63.30
14733;DHT22;7457;50.960;6.830;2022-09-03T16:23:29;24.70;64.30
14733;DHT22;7457;50.960;6.830;2022-09-03T16:29:17;24.50;65.30
14733;DHT22;7457;50.960;6.830;2022-09-03T16:37:23;24.20;66.50
14733;DHT22;7457;50.960;6.830;2022-09-03T16:45:49;23.80;67.60
14733;DHT22;7457;50.960;6.830;2022-09-03T16:48:23;23.70;67.50
14733;DHT22;7457;50.960;6.830;2022-09-03T16:51:09;23.60;68.10
14733;DHT22;7457;50.960;6.830;2022-09-03T17:13:05;23.30;70.30
14733;DHT22;7457;50.960;6.830;2022-09-03T17:24:34;22.80;74.80
14733;DHT22;7457;50.960;6.830;2022-09-03T17:38:03;22.10;79.60
14733;DHT22;7457;50.960;6.830;2022-09-03T17:40:51;22.10;80.20
14733;DHT22;7457;50.960;6.830;2022-09-03T17:48:52;21.90;80.70
14733;DHT22;7457;50.960;6.830;2022-09-03T17:57:04;21.70;82.10
14733;DHT22;7457;50.960;6.830;2022-09-03T18:05:17;21.40;84.30
14733;DHT22;7457;50.960;6.830;2022-09-03T18:07:54;21.30;85.50
14733;DHT22;7457;50.960;6.830;2022-09-03T18:10:38;21.20;86.90
14733;DHT22;7457;50.960;6.830;2022-09-03T18:13:20;21.10;87.90
14733;DHT22;7457;50.960;6.830;2022-09-03T18:15:59;21.00;88.60
14733;DHT22;7457;50.960;6.830;2022-09-03T18:18:31;20.90;89.50
14733;DHT22;7457;50.960;6.830;2022-09-03T18:21:00;20.80;90.30
14733;DHT22;7457;50.960;6.830;2022-09-03T18:24:22;20.70;90.90
14733;DHT22;7457;50.960;6.830;2022-09-03T18:27:13;20.70;91.20
14733;DHT22;7457;50.960;6.830;2022-09-03T18:30:08;20.50;91.10
14733;DHT22;7457;50.960;6.830;2022-09-03T18:32:53;20.50;91.30
14733;DHT22;7457;50.960;6.830;2022-09-03T18:35:38;20.40;91.70
14733;DHT22;7457;50.960;6.830;2022-09-03T18:38:28;20.40;91.60
14733;DHT22;7457;50.960;6.830;2022-09-03T18:44:26;20.30;91.30
14733;DHT22;7457;50.960;6.830;2022-09-03T18:47:43;20.20;91.30
14733;DHT22;7457;50.960;6.830;2022-09-03T18:50:52;20.10;91.40
14733;DHT22;7457;50.960;6.830;2022-09-03T19:02:24;19.80;91.70
14733;DHT22;7457;50.960;6.830;2022-09-03T19:08:47;19.70;92.30
14733;DHT22;7457;50.960;6.830;2022-09-03T19:11:36;19.70;92.60
14733;DHT22;7457;50.960;6.830;2022-09-03T19:15:16;19.60;92.70
14733;DHT22;7457;50.960;6.830;2022-09-03T19:18:07;19.60;92.80
14733;DHT22;7457;50.960;6.830;2022-09-03T19:24:00;19.50;92.90
14733;DHT22;7457;50.960;6.830;2022-09-03T19:27:13;19.40;92.90
14733;DHT22;7457;50.960;6.830;2022-09-03T19:30:07;19.40;92.80
14733;DHT22;7457;50.960;6.830;2022-09-03T19:36:29;19.30;93.00
14733;DHT22;7457;50.960;6.830;2022-09-03T19:51:19;19.20;93.90
14733;DHT22;7457;50.960;6.830;2022-09-03T19:54:05;19.20;94.10
14733;DHT22;7457;50.960;6.830;2022-09-03T19:56:53;19.10;94.20
14733;DHT22;7457;50.960;6.830;2022-09-03T19:59:40;19.10;94.20
14733;DHT22;7457;50.960;6.830;2022-09-03T20:02:25;19.10;94.30
14733;DHT22;7457;50.960;6.830;2022-09-03T20:05:15;19.10;94.20
14733;DHT22;7457;50.960;6.830;2022-09-03T20:08:00;19.10;94.40
14733;DHT22;7457;50.960;6.830;2022-09-03T20:10:47;19.00;94.50
14733;DHT22;7457;50.960;6.830;2022-09-03T20:13:16;19.00;94.70
14733;DHT22;7457;50.960;6.830;2022-09-03T20:21:46;18.90;94.80
14733;DHT22;7457;50.960;6.830;2022-09-03T20:24:35;18.90;95.00
14733;DHT22;7457;50.960;6.830;2022-09-03T20:30:07;18.80;95.50
14733;DHT22;7457;50.960;6.830;2022-09-03T20:32:56;18.80;95.40
14733;DHT22;7457;50.960;6.830;2022-09-03T20:55:50;18.60;96.00
14733;DHT22;7457;50.960;6.830;2022-09-03T20:58:49;18.60;96.00
14733;DHT22;7457;50.960;6.830;2022-09-03T21:07:42;18.50;96.30
14733;DHT22;7457;50.960;6.830;2022-09-03T21:12:59;18.50;96.40
14733;DHT22;7457;50.960;6.830;2022-09-03T21:15:48;18.40;96.60
14733;DHT22;7457;50.960;6.830;2022-09-03T21:18:40;18.40;97.10
14733;DHT22;7457;50.960;6.830;2022-09-03T21:21:17;18.40;96.90
14733;DHT22;7457;50.960;6.830;2022-09-03T21:24:08;18.30;96.90
14733;DHT22;7457;50.960;6.830;2022-09-03T21:26:39;18.30;97.00
14733;DHT22;7457;50.960;6.830;2022-09-03T21:29:37;18.30;97.10
14733;DHT22;7457;50.960;6.830;2022-09-03T21:32:28;18.30;97.50
14733;DHT22;7457;50.960;6.830;2022-09-03T21:37:33;18.30;97.80
14733;DHT22;7457;50.960;6.830;2022-09-03T21:39:59;18.20;97.90
14733;DHT22;7457;50.960;6.830;2022-09-03T21:48:19;18.20;98.00
14733;DHT22;7457;50.960;6.830;2022-09-03T21:50:53;18.10;98.20
14733;DHT22;7457;50.960;6.830;2022-09-03T22:02:09;18.10;98.40
14733;DHT22;7457;50.960;6.830;2022-09-03T22:04:40;18.10;98.30
14733;DHT22;7457;50.960;6.830;2022-09-03T22:09:48;18.10;98.40
14733;DHT22;7457;50.960;6.830;2022-09-03T22:14:52;18.00;98.40
14733;DHT22;7457;50.960;6.830;2022-09-03T22:17:45;18.00;98.50
14733;DHT22;7457;50.960;6.830;2022-09-03T22:20:14;18.00;98.50
14733;DHT22;7457;50.960;6.830;2022-09-03T22:23:11;18.00;98.50
14733;DHT22;7457;50.960;6.830;2022-09-03T22:25:54;18.00;98.50
14733;DHT22;7457;50.960;6.830;2022-09-03T22:28:29;17.90;98.70
14733;DHT22;7457;50.960;6.830;2022-09-03T22:36:58;17.90;98.60
14733;DHT22;7457;50.960;6.830;2022-09-03T22:56:21;17.70;98.90
14733;DHT22;7457;50.960;6.830;2022-09-03T22:59:26;17.70;99.30
14733;DHT22;7457;50.960;6.830;2022-09-03T23:04:45;17.60;99.10
14733;DHT22;7457;50.960;6.830;2022-09-03T23:07:48;17.60;99.10
14733;DHT22;7457;50.960;6.830;2022-09-03T23:10:21;17.60;99.00
14733;DHT22;7457;50.960;6.830;2022-09-03T23:13:15;17.60;99.10
14733;DHT22;7457;50.960;6.830;2022-09-03T23:15:44;17.60;99.20
14733;DHT22;7457;50.960;6.830;2022-09-03T23:18:14;17.60;99.20